sensor_id;sensor_type;location;lat;lon;timestamp;P1;durP1;ratioP1;P2;durP2;ratioP2
65373;SDS011;52070;53.760;9.678;2024-02-14T00:02:17;3.83;;;2.00;;
65373;SDS011;52070;53.760;9.678;2024-02-14T00:04:44;5.40;;;2.17;;
65373;SDS011;52070;53.760;9.678;2024-02-14T00:07:11;5.30;;;2.10;;
65373;SDS011;52070;53.760;9.678;2024-02-14T00:09:38;3.22;;;1.88;;
65373;SDS011;52070;53.760;9.678;2024-02-14T00:12:06;5.28;;;1.83;;
65373;SDS011;52070;53.760;9.678;2024-02-14T00:14:35;4.00;;;1.65;;
65373;SDS011;52070;53.760;9.678;2024-02-14T00:17:03;2.33;;;1.73;;
65373;SDS011;52070;53.760;9.678;2024-02-14T00:19:30;4.40;;;1.90;;
65373;SDS011;52070;53.760;9.678;2024-02-14T00:21:57;2.83;;;1.75;;
65373;SDS011;52070;53.760;9.678;2024-02-14T00:24:24;3.90;;;1.92;;
65373;SDS011;52070;53.760;9.678;2024-02-14T00:26:52;7.10;;;1.60;;
65373;SDS011;52070;53.760;9.678;2024-02-14T00:29:19;4.18;;;1.83;;
65373;SDS011;52070;53.760;9.678;2024-02-14T00:31:48;3.45;;;1.70;;
65373;SDS011;52070;53.760;9.678;2024-02-14T00:34:15;1.85;;;1.65;;
65373;SDS011;52070;53.760;9.678;2024-02-14T00:36:41;6.30;;;1.90;;
65373;SDS011;52070;53.760;9.678;2024-02-14T00:39:08;7.82;;;1.70;;
65373;SDS011;52070;53.760;9.678;2024-02-14T00:41:36;8.60;;;1.83;;
65373;SDS011;52070;53.760;9.678;2024-02-14T00:44:03;1.85;;;1.65;;
65373;SDS011;52070;53.760;9.678;2024-02-14T00:46:30;2.30;;;1.63;;
65373;SDS011;52070;53.760;9.678;2024-02-14T00:48:58;7.20;;;1.60;;
65373;SDS011;52070;53.760;9.678;2024-02-14T00:51:26;4.40;;;1.60;;
65373;SDS011;52070;53.760;9.678;2024-02-14T00:53:53;4.32;;;1.90;;
65373;SDS011;52070;53.760;9.678;2024-02-14T00:56:19;5.97;;;1.60;;
65373;SDS011;52070;53.760;9.678;2024-02-14T00:58:48;4.00;;;1.48;;
65373;SDS011;52070;53.760;9.678;2024-02-14T01:01:16;2.97;;;1.70;;
65373;SDS011;52070;53.760;9.678;2024-02-14T01:03:43;5.90;;;1.83;;
65373;SDS011;52070;53.760;9.678;2024-02-14T01:06:11;4.43;;;1.80;;
65373;SDS011;52070;53.760;9.678;2024-02-14T01:08:39;6.45;;;1.73;;
65373;SDS011;52070;53.760;9.678;2024-02-14T01:11:06;4.65;;;1.70;;
65373;SDS011;52070;53.760;9.678;2024-02-14T01:13:33;4.18;;;1.80;;
65373;SDS011;52070;53.760;9.678;2024-02-14T01:16:00;4.93;;;1.75;;
65373;SDS011;52070;53.760;9.678;2024-02-14T01:18:28;3.28;;;1.98;;
65373;SDS011;52070;53.760;9.678;2024-02-14T01:20:55;8.65;;;2.10;;
65373;SDS011;52070;53.760;9.678;2024-02-14T01:23:25;4.25;;;1.90;;
65373;SDS011;52070;53.760;9.678;2024-02-14T01:25:52;5.88;;;2.63;;
65373;SDS011;52070;53.760;9.678;2024-02-14T01:28:20;4.03;;;1.98;;
65373;SDS011;52070;53.760;9.678;2024-02-14T01:30:47;6.78;;;2.00;;
65373;SDS011;52070;53.760;9.678;2024-02-14T01:33:14;2.80;;;1.95;;
65373;SDS011;52070;53.760;9.678;2024-02-14T01:35:42;4.05;;;1.90;;
65373;SDS011;52070;53.760;9.678;2024-02-14T01:38:09;2.78;;;1.90;;
65373;SDS011;52070;53.760;9.678;2024-02-14T01:40:41;4.03;;;1.80;;
65373;SDS011;52070;53.760;9.678;2024-02-14T01:43:09;5.22;;;1.95;;
65373;SDS011;52070;53.760;9.678;2024-02-14T01:45:37;4.85;;;2.20;;
65373;SDS011;52070;53.760;9.678;2024-02-14T01:48:05;4.75;;;1.85;;
65373;SDS011;52070;53.760;9.678;2024-02-14T01:50:33;4.80;;;2.00;;
65373;SDS011;52070;53.760;9.678;2024-02-14T01:53:01;6.43;;;2.10;;
65373;SDS011;52070;53.760;9.678;2024-02-14T01:55:28;6.60;;;1.80;;
65373;SDS011;52070;53.760;9.678;2024-02-14T01:57:57;3.22;;;2.30;;
65373;SDS011;52070;53.760;9.678;2024-02-14T02:00:24;4.78;;;2.20;;
65373;SDS011;52070;53.760;9.678;2024-02-14T02:02:53;5.43;;;1.92;;
65373;SDS011;52070;53.760;9.678;2024-02-14T02:05:21;7.07;;;2.40;;
65373;SDS011;52070;53.760;9.678;2024-02-14T02:07:48;4.82;;;2.63;;
65373;SDS011;52070;53.760;9.678;2024-02-14T02:10:15;6.93;;;3.10;;
65373;SDS011;52070;53.760;9.678;2024-02-14T02:12:42;6.70;;;2.63;;
65373;SDS011;52070;53.760;9.678;2024-02-14T02:15:11;6.63;;;2.50;;
65373;SDS011;52070;53.760;9.678;2024-02-14T02:17:40;4.07;;;2.65;;
65373;SDS011;52070;53.760;9.678;2024-02-14T02:22:42;6.43;;;2.60;;
65373;SDS011;52070;53.760;9.678;2024-02-14T02:25:12;5.55;;;2.60;;
65373;SDS011;52070;53.760;9.678;2024-02-14T02:27:39;6.97;;;3.10;;
65373;SDS011;52070;53.760;9.678;2024-02-14T02:30:07;10.65;;;2.85;;
65373;SDS011;52070;53.760;9.678;2024-02-14T02:32:35;5.55;;;2.92;;
65373;SDS011;52070;53.760;9.678;2024-02-14T02:35:03;8.68;;;2.67;;
65373;SDS011;52070;53.760;9.678;2024-02-14T02:37:31;4.97;;;2.92;;
65373;SDS011;52070;53.760;9.678;2024-02-14T02:39:59;3.75;;;2.78;;
65373;SDS011;52070;53.760;9.678;2024-02-14T02:42:26;6.35;;;2.92;;
65373;SDS011;52070;53.760;9.678;2024-02-14T02:44:54;8.32;;;3.35;;
65373;SDS011;52070;53.760;9.678;2024-02-14T02:47:21;8.25;;;3.47;;
65373;SDS011;52070;53.760;9.678;2024-02-14T02:49:48;7.07;;;3.10;;
65373;SDS011;52070;53.760;9.678;2024-02-14T02:52:15;6.50;;;3.58;;
65373;SDS011;52070;53.760;9.678;2024-02-14T02:54:42;7.15;;;2.80;;
65373;SDS011;52070;53.760;9.678;2024-02-14T02:57:11;5.65;;;2.95;;
65373;SDS011;52070;53.760;9.678;2024-02-14T02:59:38;4.93;;;3.20;;
65373;SDS011;52070;53.760;9.678;2024-02-14T03:02:08;6.18;;;3.50;;
65373;SDS011;52070;53.760;9.678;2024-02-14T03:04:37;4.53;;;3.22;;
65373;SDS011;52070;53.760;9.678;2024-02-14T03:07:05;9.43;;;3.45;;
65373;SDS011;52070;53.760;9.678;2024-02-14T03:09:33;6.70;;;3.03;;
65373;SDS011;52070;53.760;9.678;2024-02-14T03:12:01;6.70;;;3.28;;
65373;SDS011;52070;53.760;9.678;2024-02-14T03:14:30;5.90;;;3.35;;
65373;SDS011;52070;53.760;9.678;2024-02-14T03:16:58;9.98;;;3.20;;
65373;SDS011;52070;53.760;9.678;2024-02-14T03:19:26;7.28;;;3.50;;
65373;SDS011;52070;53.760;9.678;2024-02-14T03:21:54;6.78;;;3.25;;
65373;SDS011;52070;53.760;9.678;2024-02-14T03:24:21;6.50;;;3.42;;
65373;SDS011;52070;53.760;9.678;2024-02-14T03:26:50;6.22;;;3.22;;
65373;SDS011;52070;53.760;9.678;2024-02-14T03:29:19;6.43;;;3.38;;
65373;SDS011;52070;53.760;9.678;2024-02-14T03:31:47;4.72;;;3.40;;
65373;SDS011;52070;53.760;9.678;2024-02-14T03:34:14;5.13;;;3.20;;
65373;SDS011;52070;53.760;9.678;2024-02-14T03:36:41;6.20;;;3.47;;
65373;SDS011;52070;53.760;9.678;2024-02-14T03:39:08;8.95;;;2.95;;
65373;SDS011;52070;53.760;9.678;2024-02-14T03:41:36;13.45;;;3.70;;
65373;SDS011;52070;53.760;9.678;2024-02-14T03:44:03;7.57;;;3.13;;
65373;SDS011;52070;53.760;9.678;2024-02-14T03:46:32;10.35;;;4.00;;
65373;SDS011;52070;53.760;9.678;2024-02-14T03:49:02;5.68;;;3.15;;
65373;SDS011;52070;53.760;9.678;2024-02-14T03:51:29;7.70;;;3.65;;
65373;SDS011;52070;53.760;9.678;2024-02-14T03:53:56;5.45;;;3.70;;
65373;SDS011;52070;53.760;9.678;2024-02-14T03:56:23;5.07;;;2.88;;
65373;SDS011;52070;53.760;9.678;2024-02-14T03:58:51;10.05;;;3.83;;
65373;SDS011;52070;53.760;9.678;2024-02-14T04:01:18;4.85;;;3.17;;
65373;SDS011;52070;53.760;9.678;2024-02-14T04:03:46;5.78;;;3.03;;
65373;SDS011;52070;53.760;9.678;2024-02-14T04:06:16;6.80;;;3.20;;
65373;SDS011;52070;53.760;9.678;2024-02-14T04:08:43;7.00;;;3.55;;
65373;SDS011;52070;53.760;9.678;2024-02-14T04:11:10;13.27;;;3.40;;
65373;SDS011;52070;53.760;9.678;2024-02-14T04:13:39;9.32;;;3.22;;
65373;SDS011;52070;53.760;9.678;2024-02-14T04:16:06;7.68;;;3.25;;
65373;SDS011;52070;53.760;9.678;2024-02-14T04:18:33;9.48;;;3.53;;
65373;SDS011;52070;53.760;9.678;2024-02-14T04:21:00;6.00;;;3.80;;
65373;SDS011;52070;53.760;9.678;2024-02-14T04:23:30;12.35;;;3.80;;
65373;SDS011;52070;53.760;9.678;2024-02-14T04:25:58;6.72;;;3.25;;
65373;SDS011;52070;53.760;9.678;2024-02-14T04:28:25;8.15;;;4.18;;
65373;SDS011;52070;53.760;9.678;2024-02-14T04:30:52;5.22;;;3.95;;
65373;SDS011;52070;53.760;9.678;2024-02-14T04:33:21;9.32;;;4.05;;
65373;SDS011;52070;53.760;9.678;2024-02-14T04:35:48;6.90;;;3.88;;
65373;SDS011;52070;53.760;9.678;2024-02-14T04:38:15;8.63;;;3.85;;
65373;SDS011;52070;53.760;9.678;2024-02-14T04:40:45;12.52;;;4.30;;
65373;SDS011;52070;53.760;9.678;2024-02-14T04:43:12;7.28;;;3.92;;
65373;SDS011;52070;53.760;9.678;2024-02-14T04:45:39;7.55;;;4.10;;
65373;SDS011;52070;53.760;9.678;2024-02-14T04:48:06;11.25;;;4.22;;
65373;SDS011;52070;53.760;9.678;2024-02-14T04:50:34;7.75;;;3.90;;
65373;SDS011;52070;53.760;9.678;2024-02-14T04:53:01;7.35;;;4.50;;
65373;SDS011;52070;53.760;9.678;2024-02-14T04:55:28;10.20;;;4.47;;
65373;SDS011;52070;53.760;9.678;2024-02-14T04:57:56;7.63;;;4.88;;
65373;SDS011;52070;53.760;9.678;2024-02-14T05:00:23;8.32;;;4.55;;
65373;SDS011;52070;53.760;9.678;2024-02-14T05:02:50;7.55;;;4.10;;
65373;SDS011;52070;53.760;9.678;2024-02-14T05:05:17;6.57;;;4.18;;
65373;SDS011;52070;53.760;9.678;2024-02-14T05:07:44;7.53;;;4.47;;
65373;SDS011;52070;53.760;9.678;2024-02-14T05:10:11;9.25;;;4.32;;
65373;SDS011;52070;53.760;9.678;2024-02-14T05:12:39;7.45;;;4.22;;
65373;SDS011;52070;53.760;9.678;2024-02-14T05:15:08;9.10;;;4.88;;
65373;SDS011;52070;53.760;9.678;2024-02-14T05:17:37;6.50;;;4.35;;
65373;SDS011;52070;53.760;9.678;2024-02-14T05:20:05;6.10;;;4.30;;
65373;SDS011;52070;53.760;9.678;2024-02-14T05:22:35;7.53;;;4.53;;
65373;SDS011;52070;53.760;9.678;2024-02-14T05:25:03;7.93;;;4.35;;
65373;SDS011;52070;53.760;9.678;2024-02-14T05:27:30;6.13;;;4.22;;
65373;SDS011;52070;53.760;9.678;2024-02-14T05:29:57;6.60;;;4.50;;
65373;SDS011;52070;53.760;9.678;2024-02-14T05:32:25;11.32;;;4.93;;
65373;SDS011;52070;53.760;9.678;2024-02-14T05:34:52;6.63;;;4.82;;
65373;SDS011;52070;53.760;9.678;2024-02-14T05:37:19;7.13;;;4.78;;
65373;SDS011;52070;53.760;9.678;2024-02-14T05:39:46;6.55;;;4.75;;
65373;SDS011;52070;53.760;9.678;2024-02-14T05:42:13;10.30;;;4.63;;
65373;SDS011;52070;53.760;9.678;2024-02-14T05:44:41;7.82;;;4.47;;
65373;SDS011;52070;53.760;9.678;2024-02-14T05:47:09;7.90;;;4.45;;
65373;SDS011;52070;53.760;9.678;2024-02-14T05:49:39;7.82;;;3.95;;
65373;SDS011;52070;53.760;9.678;2024-02-14T05:52:06;6.72;;;4.18;;
65373;SDS011;52070;53.760;9.678;2024-02-14T05:54:34;9.07;;;4.47;;
65373;SDS011;52070;53.760;9.678;2024-02-14T05:57:01;6.43;;;3.88;;
65373;SDS011;52070;53.760;9.678;2024-02-14T05:59:28;7.55;;;4.25;;
65373;SDS011;52070;53.760;9.678;2024-02-14T06:01:56;9.40;;;4.50;;
65373;SDS011;52070;53.760;9.678;2024-02-14T06:04:23;13.63;;;5.05;;
65373;SDS011;52070;53.760;9.678;2024-02-14T06:06:51;8.68;;;4.30;;
65373;SDS011;52070;53.760;9.678;2024-02-14T06:09:18;7.63;;;4.45;;
65373;SDS011;52070;53.760;9.678;2024-02-14T06:11:45;12.20;;;4.70;;
65373;SDS011;52070;53.760;9.678;2024-02-14T06:14:12;7.32;;;4.22;;
65373;SDS011;52070;53.760;9.678;2024-02-14T06:16:39;5.97;;;4.32;;
65373;SDS011;52070;53.760;9.678;2024-02-14T06:19:06;7.68;;;4.88;;
65373;SDS011;52070;53.760;9.678;2024-02-14T06:21:33;9.25;;;4.20;;
65373;SDS011;52070;53.760;9.678;2024-02-14T06:24:01;7.93;;;4.80;;
65373;SDS011;52070;53.760;9.678;2024-02-14T06:26:30;5.72;;;4.32;;
65373;SDS011;52070;53.760;9.678;2024-02-14T06:28:57;6.55;;;4.05;;
65373;SDS011;52070;53.760;9.678;2024-02-14T06:31:24;7.53;;;4.43;;
65373;SDS011;52070;53.760;9.678;2024-02-14T06:33:50;8.30;;;4.68;;
65373;SDS011;52070;53.760;9.678;2024-02-14T06:36:17;7.75;;;4.43;;
65373;SDS011;52070;53.760;9.678;2024-02-14T06:38:44;8.15;;;4.45;;
65373;SDS011;52070;53.760;9.678;2024-02-14T06:41:13;7.32;;;4.10;;
65373;SDS011;52070;53.760;9.678;2024-02-14T06:43:40;8.63;;;5.07;;
65373;SDS011;52070;53.760;9.678;2024-02-14T06:46:07;8.05;;;5.20;;
65373;SDS011;52070;53.760;9.678;2024-02-14T06:48:34;10.18;;;4.55;;
65373;SDS011;52070;53.760;9.678;2024-02-14T06:51:01;9.20;;;5.28;;
65373;SDS011;52070;53.760;9.678;2024-02-14T06:53:28;9.00;;;4.72;;
65373;SDS011;52070;53.760;9.678;2024-02-14T06:55:56;10.52;;;5.60;;
65373;SDS011;52070;53.760;9.678;2024-02-14T06:58:24;9.25;;;4.97;;
65373;SDS011;52070;53.760;9.678;2024-02-14T07:00:51;8.07;;;5.15;;
65373;SDS011;52070;53.760;9.678;2024-02-14T07:03:18;7.72;;;4.85;;
65373;SDS011;52070;53.760;9.678;2024-02-14T07:05:45;7.50;;;4.75;;
65373;SDS011;52070;53.760;9.678;2024-02-14T07:08:12;5.82;;;4.40;;
65373;SDS011;52070;53.760;9.678;2024-02-14T07:10:40;8.75;;;4.72;;
65373;SDS011;52070;53.760;9.678;2024-02-14T07:13:07;8.35;;;4.75;;
65373;SDS011;52070;53.760;9.678;2024-02-14T07:15:35;11.18;;;5.10;;
65373;SDS011;52070;53.760;9.678;2024-02-14T07:18:02;7.55;;;5.10;;
65373;SDS011;52070;53.760;9.678;2024-02-14T07:20:29;8.23;;;4.95;;
65373;SDS011;52070;53.760;9.678;2024-02-14T07:22:56;8.93;;;4.60;;
65373;SDS011;52070;53.760;9.678;2024-02-14T07:25:23;6.45;;;4.20;;
65373;SDS011;52070;53.760;9.678;2024-02-14T07:27:50;6.50;;;4.45;;
65373;SDS011;52070;53.760;9.678;2024-02-14T07:30:17;9.88;;;4.65;;
65373;SDS011;52070;53.760;9.678;2024-02-14T07:32:45;8.98;;;4.82;;
65373;SDS011;52070;53.760;9.678;2024-02-14T07:35:12;8.02;;;4.45;;
65373;SDS011;52070;53.760;9.678;2024-02-14T07:37:39;9.63;;;5.15;;
65373;SDS011;52070;53.760;9.678;2024-02-14T07:40:08;7.63;;;4.85;;
65373;SDS011;52070;53.760;9.678;2024-02-14T07:42:37;8.32;;;4.97;;
65373;SDS011;52070;53.760;9.678;2024-02-14T07:45:04;7.10;;;4.57;;
65373;SDS011;52070;53.760;9.678;2024-02-14T07:47:31;8.65;;;4.97;;
65373;SDS011;52070;53.760;9.678;2024-02-14T07:50:00;8.88;;;5.63;;
65373;SDS011;52070;53.760;9.678;2024-02-14T07:52:28;8.82;;;5.35;;
65373;SDS011;52070;53.760;9.678;2024-02-14T07:54:55;7.75;;;5.38;;
65373;SDS011;52070;53.760;9.678;2024-02-14T07:57:22;7.25;;;4.88;;
65373;SDS011;52070;53.760;9.678;2024-02-14T07:59:50;11.85;;;5.13;;
65373;SDS011;52070;53.760;9.678;2024-02-14T08:02:17;7.35;;;4.65;;
65373;SDS011;52070;53.760;9.678;2024-02-14T08:04:44;7.50;;;4.43;;
65373;SDS011;52070;53.760;9.678;2024-02-14T08:07:12;7.93;;;4.20;;
65373;SDS011;52070;53.760;9.678;2024-02-14T08:09:39;11.05;;;4.97;;
65373;SDS011;52070;53.760;9.678;2024-02-14T08:12:06;9.40;;;4.88;;
65373;SDS011;52070;53.760;9.678;2024-02-14T08:14:33;6.35;;;4.65;;
65373;SDS011;52070;53.760;9.678;2024-02-14T08:17:00;9.02;;;4.22;;
65373;SDS011;52070;53.760;9.678;2024-02-14T08:19:27;7.82;;;4.68;;
65373;SDS011;52070;53.760;9.678;2024-02-14T08:21:54;6.70;;;4.72;;
65373;SDS011;52070;53.760;9.678;2024-02-14T08:24:25;7.85;;;4.80;;
65373;SDS011;52070;53.760;9.678;2024-02-14T08:26:53;8.40;;;5.13;;
65373;SDS011;52070;53.760;9.678;2024-02-14T08:29:20;8.63;;;5.10;;
65373;SDS011;52070;53.760;9.678;2024-02-14T08:31:47;10.32;;;5.10;;
65373;SDS011;52070;53.760;9.678;2024-02-14T08:34:14;8.60;;;4.32;;
65373;SDS011;52070;53.760;9.678;2024-02-14T08:36:41;9.48;;;4.88;;
65373;SDS011;52070;53.760;9.678;2024-02-14T08:39:08;8.65;;;5.22;;
65373;SDS011;52070;53.760;9.678;2024-02-14T08:41:37;8.90;;;4.93;;
65373;SDS011;52070;53.760;9.678;2024-02-14T08:44:05;6.45;;;4.75;;
65373;SDS011;52070;53.760;9.678;2024-02-14T08:46:32;8.63;;;5.13;;
65373;SDS011;52070;53.760;9.678;2024-02-14T08:49:00;9.25;;;5.00;;
65373;SDS011;52070;53.760;9.678;2024-02-14T08:51:27;8.82;;;4.70;;
65373;SDS011;52070;53.760;9.678;2024-02-14T08:53:54;7.28;;;4.95;;
65373;SDS011;52070;53.760;9.678;2024-02-14T08:56:25;6.03;;;4.45;;
65373;SDS011;52070;53.760;9.678;2024-02-14T08:58:53;8.27;;;4.85;;
65373;SDS011;52070;53.760;9.678;2024-02-14T09:01:20;9.57;;;4.72;;
65373;SDS011;52070;53.760;9.678;2024-02-14T09:03:47;6.38;;;4.82;;
65373;SDS011;52070;53.760;9.678;2024-02-14T09:06:15;6.38;;;4.72;;
65373;SDS011;52070;53.760;9.678;2024-02-14T09:08:43;7.88;;;4.95;;
65373;SDS011;52070;53.760;9.678;2024-02-14T09:11:10;9.07;;;5.32;;
65373;SDS011;52070;53.760;9.678;2024-02-14T09:13:38;7.00;;;5.05;;
65373;SDS011;52070;53.760;9.678;2024-02-14T09:16:07;8.05;;;5.10;;
65373;SDS011;52070;53.760;9.678;2024-02-14T09:18:34;8.75;;;5.00;;
65373;SDS011;52070;53.760;9.678;2024-02-14T09:21:01;8.13;;;5.10;;
65373;SDS011;52070;53.760;9.678;2024-02-14T09:23:29;6.63;;;4.97;;
65373;SDS011;52070;53.760;9.678;2024-02-14T09:25:57;8.45;;;5.60;;
65373;SDS011;52070;53.760;9.678;2024-02-14T09:28:24;8.25;;;5.50;;
65373;SDS011;52070;53.760;9.678;2024-02-14T09:30:51;8.65;;;5.90;;
65373;SDS011;52070;53.760;9.678;2024-02-14T09:33:21;8.40;;;5.72;;
65373;SDS011;52070;53.760;9.678;2024-02-14T09:35:48;9.07;;;5.30;;
65373;SDS011;52070;53.760;9.678;2024-02-14T09:38:17;7.22;;;5.20;;
65373;SDS011;52070;53.760;9.678;2024-02-14T09:40:44;7.75;;;5.30;;
65373;SDS011;52070;53.760;9.678;2024-02-14T09:43:12;7.82;;;5.68;;
65373;SDS011;52070;53.760;9.678;2024-02-14T09:45:49;9.20;;;6.05;;
65373;SDS011;52070;53.760;9.678;2024-02-14T09:48:17;8.40;;;5.90;;
65373;SDS011;52070;53.760;9.678;2024-02-14T09:50:47;12.88;;;6.30;;
65373;SDS011;52070;53.760;9.678;2024-02-14T09:53:15;9.63;;;5.60;;
65373;SDS011;52070;53.760;9.678;2024-02-14T09:55:45;13.52;;;5.78;;
65373;SDS011;52070;53.760;9.678;2024-02-14T09:58:12;7.50;;;5.32;;
65373;SDS011;52070;53.760;9.678;2024-02-14T10:00:39;10.57;;;6.22;;
65373;SDS011;52070;53.760;9.678;2024-02-14T10:03:07;8.35;;;5.95;;
65373;SDS011;52070;53.760;9.678;2024-02-14T10:05:34;10.27;;;6.45;;
65373;SDS011;52070;53.760;9.678;2024-02-14T10:08:03;13.50;;;6.15;;
65373;SDS011;52070;53.760;9.678;2024-02-14T10:10:31;11.00;;;5.97;;
65373;SDS011;52070;53.760;9.678;2024-02-14T10:13:00;16.17;;;6.70;;
65373;SDS011;52070;53.760;9.678;2024-02-14T10:15:30;10.37;;;6.13;;
65373;SDS011;52070;53.760;9.678;2024-02-14T10:17:57;8.35;;;6.15;;
65373;SDS011;52070;53.760;9.678;2024-02-14T10:20:24;10.07;;;6.13;;
65373;SDS011;52070;53.760;9.678;2024-02-14T10:22:52;8.60;;;5.75;;
65373;SDS011;52070;53.760;9.678;2024-02-14T10:25:28;11.02;;;6.07;;
65373;SDS011;52070;53.760;9.678;2024-02-14T10:27:56;10.00;;;6.07;;
65373;SDS011;52070;53.760;9.678;2024-02-14T10:30:23;9.98;;;6.53;;
65373;SDS011;52070;53.760;9.678;2024-02-14T10:32:50;8.75;;;5.95;;
65373;SDS011;52070;53.760;9.678;2024-02-14T10:35:17;9.48;;;6.20;;
65373;SDS011;52070;53.760;9.678;2024-02-14T10:37:47;9.60;;;6.33;;
65373;SDS011;52070;53.760;9.678;2024-02-14T10:40:15;12.25;;;6.05;;
65373;SDS011;52070;53.760;9.678;2024-02-14T10:42:45;11.05;;;6.38;;
65373;SDS011;52070;53.760;9.678;2024-02-14T10:45:12;10.02;;;5.93;;
65373;SDS011;52070;53.760;9.678;2024-02-14T10:47:40;9.45;;;6.38;;
65373;SDS011;52070;53.760;9.678;2024-02-14T10:50:09;11.38;;;5.90;;
65373;SDS011;52070;53.760;9.678;2024-02-14T10:52:40;9.88;;;6.63;;
65373;SDS011;52070;53.760;9.678;2024-02-14T10:55:07;8.88;;;5.85;;
65373;SDS011;52070;53.760;9.678;2024-02-14T10:57:36;7.75;;;5.55;;
65373;SDS011;52070;53.760;9.678;2024-02-14T11:00:06;9.73;;;5.88;;
65373;SDS011;52070;53.760;9.678;2024-02-14T11:02:35;9.18;;;5.45;;
65373;SDS011;52070;53.760;9.678;2024-02-14T11:05:03;8.85;;;5.38;;
65373;SDS011;52070;53.760;9.678;2024-02-14T11:07:32;8.05;;;5.22;;
65373;SDS011;52070;53.760;9.678;2024-02-14T11:10:04;8.23;;;5.30;;
65373;SDS011;52070;53.760;9.678;2024-02-14T11:12:32;7.68;;;5.25;;
65373;SDS011;52070;53.760;9.678;2024-02-14T11:15:09;10.23;;;5.90;;
65373;SDS011;52070;53.760;9.678;2024-02-14T11:17:38;9.48;;;5.45;;
65373;SDS011;52070;53.760;9.678;2024-02-14T11:20:12;8.00;;;5.32;;
65373;SDS011;52070;53.760;9.678;2024-02-14T11:22:50;7.00;;;5.00;;
65373;SDS011;52070;53.760;9.678;2024-02-14T11:25:21;6.35;;;4.57;;
65373;SDS011;52070;53.760;9.678;2024-02-14T11:27:50;8.27;;;5.13;;
65373;SDS011;52070;53.760;9.678;2024-02-14T11:30:27;7.95;;;5.20;;
65373;SDS011;52070;53.760;9.678;2024-02-14T11:32:55;9.10;;;5.38;;
65373;SDS011;52070;53.760;9.678;2024-02-14T11:35:22;8.30;;;4.85;;
65373;SDS011;52070;53.760;9.678;2024-02-14T11:37:51;8.85;;;4.75;;
65373;SDS011;52070;53.760;9.678;2024-02-14T11:40:19;7.35;;;4.65;;
65373;SDS011;52070;53.760;9.678;2024-02-14T11:42:46;8.82;;;4.60;;
65373;SDS011;52070;53.760;9.678;2024-02-14T11:45:13;6.75;;;4.53;;
65373;SDS011;52070;53.760;9.678;2024-02-14T11:47:41;9.23;;;4.72;;
65373;SDS011;52070;53.760;9.678;2024-02-14T11:50:08;8.80;;;4.93;;
65373;SDS011;52070;53.760;9.678;2024-02-14T11:52:36;7.07;;;4.68;;
65373;SDS011;52070;53.760;9.678;2024-02-14T11:55:03;7.93;;;5.13;;
65373;SDS011;52070;53.760;9.678;2024-02-14T11:57:31;15.32;;;5.80;;
65373;SDS011;52070;53.760;9.678;2024-02-14T11:59:59;9.70;;;5.50;;
65373;SDS011;52070;53.760;9.678;2024-02-14T12:02:26;7.15;;;4.70;;
65373;SDS011;52070;53.760;9.678;2024-02-14T12:04:55;7.68;;;4.72;;
65373;SDS011;52070;53.760;9.678;2024-02-14T12:07:24;9.30;;;4.97;;
65373;SDS011;52070;53.760;9.678;2024-02-14T12:09:52;6.57;;;4.43;;
65373;SDS011;52070;53.760;9.678;2024-02-14T12:12:21;7.85;;;4.50;;
65373;SDS011;52070;53.760;9.678;2024-02-14T12:14:51;7.53;;;4.82;;
65373;SDS011;52070;53.760;9.678;2024-02-14T12:17:18;6.82;;;4.10;;
65373;SDS011;52070;53.760;9.678;2024-02-14T12:19:45;7.32;;;4.70;;
65373;SDS011;52070;53.760;9.678;2024-02-14T12:22:15;6.40;;;3.90;;
65373;SDS011;52070;53.760;9.678;2024-02-14T12:24:44;7.22;;;4.45;;
65373;SDS011;52070;53.760;9.678;2024-02-14T12:27:12;8.43;;;4.10;;
65373;SDS011;52070;53.760;9.678;2024-02-14T12:29:39;6.57;;;4.47;;
65373;SDS011;52070;53.760;9.678;2024-02-14T12:32:07;6.35;;;3.90;;
65373;SDS011;52070;53.760;9.678;2024-02-14T12:34:34;6.28;;;3.85;;
65373;SDS011;52070;53.760;9.678;2024-02-14T12:37:02;8.52;;;4.18;;
65373;SDS011;52070;53.760;9.678;2024-02-14T12:39:32;6.47;;;3.33;;
65373;SDS011;52070;53.760;9.678;2024-02-14T12:41:59;6.75;;;3.65;;
65373;SDS011;52070;53.760;9.678;2024-02-14T12:44:27;6.18;;;3.30;;
65373;SDS011;52070;53.760;9.678;2024-02-14T12:46:54;4.30;;;3.40;;
65373;SDS011;52070;53.760;9.678;2024-02-14T12:49:21;6.32;;;3.50;;
65373;SDS011;52070;53.760;9.678;2024-02-14T12:51:51;5.13;;;3.30;;
65373;SDS011;52070;53.760;9.678;2024-02-14T12:54:18;4.10;;;2.88;;
65373;SDS011;52070;53.760;9.678;2024-02-14T12:56:46;4.75;;;3.17;;
65373;SDS011;52070;53.760;9.678;2024-02-14T12:59:14;4.07;;;3.00;;
65373;SDS011;52070;53.760;9.678;2024-02-14T13:01:44;4.93;;;3.15;;
65373;SDS011;52070;53.760;9.678;2024-02-14T13:04:11;6.05;;;3.13;;
65373;SDS011;52070;53.760;9.678;2024-02-14T13:06:39;4.93;;;3.40;;
65373;SDS011;52070;53.760;9.678;2024-02-14T13:09:06;5.13;;;2.90;;
65373;SDS011;52070;53.760;9.678;2024-02-14T13:11:34;5.35;;;2.95;;
65373;SDS011;52070;53.760;9.678;2024-02-14T13:14:02;4.45;;;3.08;;
65373;SDS011;52070;53.760;9.678;2024-02-14T13:16:29;4.07;;;2.72;;
65373;SDS011;52070;53.760;9.678;2024-02-14T13:18:56;3.65;;;2.70;;
65373;SDS011;52070;53.760;9.678;2024-02-14T13:21:23;5.22;;;2.72;;
65373;SDS011;52070;53.760;9.678;2024-02-14T13:23:50;3.90;;;2.80;;
65373;SDS011;52070;53.760;9.678;2024-02-14T13:26:17;4.90;;;2.92;;
65373;SDS011;52070;53.760;9.678;2024-02-14T13:28:44;5.43;;;3.10;;
65373;SDS011;52070;53.760;9.678;2024-02-14T13:31:13;3.88;;;2.67;;
65373;SDS011;52070;53.760;9.678;2024-02-14T13:33:39;3.50;;;2.78;;
65373;SDS011;52070;53.760;9.678;2024-02-14T13:36:07;5.07;;;2.80;;
65373;SDS011;52070;53.760;9.678;2024-02-14T13:38:34;3.40;;;2.58;;
65373;SDS011;52070;53.760;9.678;2024-02-14T13:41:01;4.20;;;2.85;;
65373;SDS011;52070;53.760;9.678;2024-02-14T13:43:28;3.25;;;2.45;;
65373;SDS011;52070;53.760;9.678;2024-02-14T13:45:55;6.57;;;2.83;;
65373;SDS011;52070;53.760;9.678;2024-02-14T13:48:23;4.57;;;2.97;;
65373;SDS011;52070;53.760;9.678;2024-02-14T13:50:50;6.53;;;2.75;;
65373;SDS011;52070;53.760;9.678;2024-02-14T13:53:17;3.83;;;2.28;;
65373;SDS011;52070;53.760;9.678;2024-02-14T13:55:44;3.78;;;2.45;;
65373;SDS011;52070;53.760;9.678;2024-02-14T13:58:11;5.15;;;2.35;;
65373;SDS011;52070;53.760;9.678;2024-02-14T14:00:42;3.90;;;2.35;;
65373;SDS011;52070;53.760;9.678;2024-02-14T14:03:09;4.93;;;2.85;;
65373;SDS011;52070;53.760;9.678;2024-02-14T14:05:38;3.50;;;2.50;;
65373;SDS011;52070;53.760;9.678;2024-02-14T14:08:05;7.20;;;3.00;;
65373;SDS011;52070;53.760;9.678;2024-02-14T14:10:32;5.53;;;3.10;;
65373;SDS011;52070;53.760;9.678;2024-02-14T14:12:59;7.82;;;3.10;;
65373;SDS011;52070;53.760;9.678;2024-02-14T14:15:26;5.20;;;3.25;;
65373;SDS011;52070;53.760;9.678;2024-02-14T14:17:54;5.78;;;2.95;;
65373;SDS011;52070;53.760;9.678;2024-02-14T14:20:23;4.10;;;2.92;;
65373;SDS011;52070;53.760;9.678;2024-02-14T14:22:51;9.25;;;3.35;;
65373;SDS011;52070;53.760;9.678;2024-02-14T14:25:18;6.38;;;3.05;;
65373;SDS011;52070;53.760;9.678;2024-02-14T14:27:45;5.65;;;3.40;;
65373;SDS011;52070;53.760;9.678;2024-02-14T14:30:12;8.00;;;4.20;;
65373;SDS011;52070;53.760;9.678;2024-02-14T14:32:39;6.28;;;3.58;;
65373;SDS011;52070;53.760;9.678;2024-02-14T14:35:06;7.65;;;3.65;;
65373;SDS011;52070;53.760;9.678;2024-02-14T14:37:35;8.75;;;3.40;;
65373;SDS011;52070;53.760;9.678;2024-02-14T14:40:04;13.77;;;3.67;;
65373;SDS011;52070;53.760;9.678;2024-02-14T14:42:33;6.72;;;3.97;;
65373;SDS011;52070;53.760;9.678;2024-02-14T14:44:59;8.35;;;4.07;;
65373;SDS011;52070;53.760;9.678;2024-02-14T14:47:26;6.72;;;4.10;;
65373;SDS011;52070;53.760;9.678;2024-02-14T14:49:53;7.68;;;3.70;;
65373;SDS011;52070;53.760;9.678;2024-02-14T14:52:20;6.75;;;3.78;;